sensor_id;sensor_type;location;lat;lon;timestamp;P1;durP1;ratioP1;P2;durP2;ratioP2
61358;SDS011;47228;46.762;23.598;2022-11-12T00:01:12;21.20;;;10.50;;
61358;SDS011;47228;46.762;23.598;2022-11-12T00:03:40;16.80;;;9.90;;
61358;SDS011;47228;46.762;23.598;2022-11-12T00:06:08;17.90;;;10.50;;
61358;SDS011;47228;46.762;23.598;2022-11-12T00:08:36;16.60;;;10.70;;
61358;SDS011;47228;46.762;23.598;2022-11-12T00:11:04;16.90;;;11.40;;
61358;SDS011;47228;46.762;23.598;2022-11-12T00:13:32;18.40;;;12.60;;
61358;SDS011;47228;46.762;23.598;2022-11-12T00:15:59;18.40;;;12.30;;
61358;SDS011;47228;46.762;23.598;2022-11-12T00:18:27;17.90;;;11.20;;
61358;SDS011;47228;46.762;23.598;2022-11-12T00:20:56;20.20;;;12.20;;
61358;SDS011;47228;46.762;23.598;2022-11-12T00:23:24;19.00;;;13.00;;
61358;SDS011;47228;46.762;23.598;2022-11-12T00:25:58;23.00;;;14.80;;
61358;SDS011;47228;46.762;23.598;2022-11-12T00:28:27;25.20;;;14.80;;
61358;SDS011;47228;46.762;23.598;2022-11-12T00:31:06;21.50;;;14.10;;
61358;SDS011;47228;46.762;23.598;2022-11-12T00:33:39;20.50;;;14.00;;
61358;SDS011;47228;46.762;23.598;2022-11-12T00:36:09;20.00;;;13.10;;
61358;SDS011;47228;46.762;23.598;2022-11-12T00:38:37;19.90;;;13.40;;
61358;SDS011;47228;46.762;23.598;2022-11-12T00:41:05;21.40;;;13.10;;
61358;SDS011;47228;46.762;23.598;2022-11-12T00:43:33;20.70;;;12.80;;
61358;SDS011;47228;46.762;23.598;2022-11-12T00:46:01;18.30;;;12.00;;
61358;SDS011;47228;46.762;23.598;2022-11-12T00:48:29;18.00;;;11.30;;
61358;SDS011;47228;46.762;23.598;2022-11-12T00:51:00;17.20;;;10.70;;
61358;SDS011;47228;46.762;23.598;2022-11-12T00:53:30;15.30;;;10.70;;
61358;SDS011;47228;46.762;23.598;2022-11-12T00:56:02;15.70;;;10.60;;
61358;SDS011;47228;46.762;23.598;2022-11-12T00:58:33;16.10;;;11.30;;
61358;SDS011;47228;46.762;23.598;2022-11-12T01:01:06;15.40;;;11.10;;
61358;SDS011;47228;46.762;23.598;2022-11-12T01:03:37;16.10;;;11.10;;
61358;SDS011;47228;46.762;23.598;2022-11-12T01:06:16;17.20;;;10.90;;
61358;SDS011;47228;46.762;23.598;2022-11-12T01:08:49;15.40;;;10.60;;
61358;SDS011;47228;46.762;23.598;2022-11-12T01:11:22;19.00;;;11.50;;
61358;SDS011;47228;46.762;23.598;2022-11-12T01:13:57;19.90;;;11.50;;
61358;SDS011;47228;46.762;23.598;2022-11-12T01:16:28;18.70;;;11.40;;
61358;SDS011;47228;46.762;23.598;2022-11-12T01:18:59;25.10;;;14.20;;
61358;SDS011;47228;46.762;23.598;2022-11-12T01:21:28;19.30;;;12.70;;
61358;SDS011;47228;46.762;23.598;2022-11-12T01:23:58;17.90;;;11.50;;
61358;SDS011;47228;46.762;23.598;2022-11-12T01:26:27;15.70;;;10.50;;
61358;SDS011;47228;46.762;23.598;2022-11-12T01:28:56;15.60;;;10.90;;
61358;SDS011;47228;46.762;23.598;2022-11-12T01:31:28;18.10;;;10.80;;
61358;SDS011;47228;46.762;23.598;2022-11-12T01:34:02;17.70;;;10.90;;
61358;SDS011;47228;46.762;23.598;2022-11-12T01:36:33;16.70;;;11.20;;
61358;SDS011;47228;46.762;23.598;2022-11-12T01:39:06;19.00;;;11.10;;
61358;SDS011;47228;46.762;23.598;2022-11-12T01:41:36;21.40;;;12.00;;
61358;SDS011;47228;46.762;23.598;2022-11-12T01:49:41;26.70;;;15.80;;
61358;SDS011;47228;46.762;23.598;2022-11-12T01:52:25;26.60;;;16.10;;
61358;SDS011;47228;46.762;23.598;2022-11-12T01:55:13;23.90;;;16.10;;
61358;SDS011;47228;46.762;23.598;2022-11-12T01:57:52;23.50;;;15.70;;
61358;SDS011;47228;46.762;23.598;2022-11-12T02:00:25;23.70;;;15.60;;
61358;SDS011;47228;46.762;23.598;2022-11-12T02:02:57;25.50;;;17.10;;
61358;SDS011;47228;46.762;23.598;2022-11-12T02:05:27;21.60;;;15.00;;
61358;SDS011;47228;46.762;23.598;2022-11-12T02:07:57;20.50;;;13.90;;
61358;SDS011;47228;46.762;23.598;2022-11-12T02:10:27;20.90;;;13.90;;
61358;SDS011;47228;46.762;23.598;2022-11-12T02:12:56;22.10;;;13.50;;
61358;SDS011;47228;46.762;23.598;2022-11-12T02:15:42;21.40;;;13.40;;
61358;SDS011;47228;46.762;23.598;2022-11-12T02:18:10;20.10;;;13.00;;
61358;SDS011;47228;46.762;23.598;2022-11-12T02:20:38;20.40;;;13.60;;
61358;SDS011;47228;46.762;23.598;2022-11-12T02:23:06;20.20;;;12.60;;
61358;SDS011;47228;46.762;23.598;2022-11-12T02:25:34;20.00;;;13.40;;
61358;SDS011;47228;46.762;23.598;2022-11-12T02:28:04;18.90;;;13.70;;
61358;SDS011;47228;46.762;23.598;2022-11-12T02:30:38;19.00;;;12.70;;
61358;SDS011;47228;46.762;23.598;2022-11-12T02:33:08;22.70;;;12.30;;
61358;SDS011;47228;46.762;23.598;2022-11-12T02:35:36;18.80;;;11.80;;
61358;SDS011;47228;46.762;23.598;2022-11-12T02:38:04;18.50;;;11.50;;
61358;SDS011;47228;46.762;23.598;2022-11-12T02:40:33;19.80;;;11.70;;
61358;SDS011;47228;46.762;23.598;2022-11-12T02:43:01;18.00;;;11.20;;
61358;SDS011;47228;46.762;23.598;2022-11-12T02:45:32;18.00;;;11.20;;
61358;SDS011;47228;46.762;23.598;2022-11-12T02:48:00;18.40;;;12.10;;
61358;SDS011;47228;46.762;23.598;2022-11-12T02:50:28;24.60;;;12.20;;
61358;SDS011;47228;46.762;23.598;2022-11-12T02:52:56;19.10;;;12.30;;
61358;SDS011;47228;46.762;23.598;2022-11-12T02:55:24;19.90;;;11.80;;
61358;SDS011;47228;46.762;23.598;2022-11-12T02:57:53;17.60;;;11.00;;
61358;SDS011;47228;46.762;23.598;2022-11-12T03:00:24;21.90;;;12.40;;
61358;SDS011;47228;46.762;23.598;2022-11-12T03:02:52;19.40;;;12.00;;
61358;SDS011;47228;46.762;23.598;2022-11-12T03:07:58;15.90;;;10.50;;
61358;SDS011;47228;46.762;23.598;2022-11-12T03:10:31;15.90;;;10.10;;
61358;SDS011;47228;46.762;23.598;2022-11-12T03:12:59;17.20;;;10.60;;
61358;SDS011;47228;46.762;23.598;2022-11-12T03:15:28;15.90;;;10.60;;
61358;SDS011;47228;46.762;23.598;2022-11-12T03:17:57;19.10;;;11.20;;
61358;SDS011;47228;46.762;23.598;2022-11-12T03:20:26;18.20;;;10.50;;
61358;SDS011;47228;46.762;23.598;2022-11-12T03:22:56;18.20;;;11.30;;
61358;SDS011;47228;46.762;23.598;2022-11-12T03:25:26;17.70;;;10.30;;
61358;SDS011;47228;46.762;23.598;2022-11-12T03:27:55;17.10;;;10.60;;
61358;SDS011;47228;46.762;23.598;2022-11-12T03:30:32;16.40;;;10.30;;
61358;SDS011;47228;46.762;23.598;2022-11-12T03:33:02;16.30;;;10.90;;
61358;SDS011;47228;46.762;23.598;2022-11-12T03:35:31;12.80;;;8.70;;
61358;SDS011;47228;46.762;23.598;2022-11-12T03:38:00;12.30;;;7.60;;
61358;SDS011;47228;46.762;23.598;2022-11-12T03:40:28;12.00;;;7.20;;
61358;SDS011;47228;46.762;23.598;2022-11-12T03:42:56;11.90;;;8.20;;
61358;SDS011;47228;46.762;23.598;2022-11-12T03:45:26;13.40;;;8.00;;
61358;SDS011;47228;46.762;23.598;2022-11-12T03:47:55;13.10;;;7.40;;
61358;SDS011;47228;46.762;23.598;2022-11-12T03:50:25;15.80;;;8.70;;
61358;SDS011;47228;46.762;23.598;2022-11-12T03:52:56;15.90;;;8.40;;
61358;SDS011;47228;46.762;23.598;2022-11-12T03:55:26;18.90;;;9.60;;
61358;SDS011;47228;46.762;23.598;2022-11-12T03:57:55;16.40;;;9.50;;
61358;SDS011;47228;46.762;23.598;2022-11-12T04:00:25;12.70;;;7.70;;
61358;SDS011;47228;46.762;23.598;2022-11-12T04:02:54;12.40;;;7.10;;
61358;SDS011;47228;46.762;23.598;2022-11-12T04:05:23;11.70;;;7.30;;
61358;SDS011;47228;46.762;23.598;2022-11-12T04:11:05;10.80;;;7.40;;
61358;SDS011;47228;46.762;23.598;2022-11-12T04:13:39;11.40;;;8.20;;
61358;SDS011;47228;46.762;23.598;2022-11-12T04:16:12;15.30;;;9.30;;
61358;SDS011;47228;46.762;23.598;2022-11-12T04:19:00;16.50;;;9.50;;
61358;SDS011;47228;46.762;23.598;2022-11-12T04:21:55;15.60;;;9.20;;
61358;SDS011;47228;46.762;23.598;2022-11-12T04:24:32;14.70;;;9.40;;
61358;SDS011;47228;46.762;23.598;2022-11-12T04:27:21;13.20;;;9.10;;
61358;SDS011;47228;46.762;23.598;2022-11-12T04:29:51;14.40;;;9.70;;
61358;SDS011;47228;46.762;23.598;2022-11-12T04:32:39;16.10;;;10.50;;
61358;SDS011;47228;46.762;23.598;2022-11-12T04:35:13;17.60;;;11.00;;
61358;SDS011;47228;46.762;23.598;2022-11-12T04:37:41;18.20;;;11.00;;
61358;SDS011;47228;46.762;23.598;2022-11-12T04:40:13;17.20;;;10.50;;
61358;SDS011;47228;46.762;23.598;2022-11-12T04:43:02;14.10;;;9.80;;
61358;SDS011;47228;46.762;23.598;2022-11-12T04:45:50;14.10;;;8.90;;
61358;SDS011;47228;46.762;23.598;2022-11-12T04:48:20;14.70;;;9.50;;
61358;SDS011;47228;46.762;23.598;2022-11-12T04:50:54;14.40;;;9.00;;
61358;SDS011;47228;46.762;23.598;2022-11-12T04:53:26;13.60;;;8.70;;
61358;SDS011;47228;46.762;23.598;2022-11-12T04:55:55;16.90;;;10.90;;
61358;SDS011;47228;46.762;23.598;2022-11-12T04:58:24;18.50;;;9.50;;
61358;SDS011;47228;46.762;23.598;2022-11-12T05:00:53;15.00;;;9.20;;
61358;SDS011;47228;46.762;23.598;2022-11-12T05:03:21;13.70;;;9.80;;
61358;SDS011;47228;46.762;23.598;2022-11-12T05:05:49;32.90;;;11.80;;
61358;SDS011;47228;46.762;23.598;2022-11-12T05:08:17;13.70;;;9.50;;
61358;SDS011;47228;46.762;23.598;2022-11-12T05:10:45;18.40;;;10.00;;
61358;SDS011;47228;46.762;23.598;2022-11-12T05:13:12;14.50;;;9.20;;
61358;SDS011;47228;46.762;23.598;2022-11-12T05:15:42;16.10;;;10.60;;
61358;SDS011;47228;46.762;23.598;2022-11-12T05:18:10;16.70;;;10.80;;
61358;SDS011;47228;46.762;23.598;2022-11-12T05:20:38;17.70;;;10.60;;
61358;SDS011;47228;46.762;23.598;2022-11-12T05:23:06;21.90;;;11.30;;
61358;SDS011;47228;46.762;23.598;2022-11-12T05:25:34;18.40;;;9.00;;
61358;SDS011;47228;46.762;23.598;2022-11-12T05:28:02;19.50;;;11.60;;
61358;SDS011;47228;46.762;23.598;2022-11-12T05:30:33;16.00;;;10.70;;
61358;SDS011;47228;46.762;23.598;2022-11-12T05:33:02;19.40;;;11.20;;
61358;SDS011;47228;46.762;23.598;2022-11-12T05:35:30;17.10;;;11.30;;
61358;SDS011;47228;46.762;23.598;2022-11-12T05:37:58;17.20;;;11.10;;
61358;SDS011;47228;46.762;23.598;2022-11-12T05:40:26;20.50;;;11.80;;
61358;SDS011;47228;46.762;23.598;2022-11-12T05:42:54;18.00;;;10.60;;
61358;SDS011;47228;46.762;23.598;2022-11-12T05:45:21;17.00;;;10.50;;
61358;SDS011;47228;46.762;23.598;2022-11-12T05:47:49;18.00;;;10.90;;
61358;SDS011;47228;46.762;23.598;2022-11-12T05:50:17;16.00;;;10.80;;
61358;SDS011;47228;46.762;23.598;2022-11-12T05:52:45;15.00;;;10.40;;
61358;SDS011;47228;46.762;23.598;2022-11-12T05:55:13;17.50;;;10.90;;
61358;SDS011;47228;46.762;23.598;2022-11-12T05:57:41;17.00;;;10.70;;
61358;SDS011;47228;46.762;23.598;2022-11-12T06:00:09;19.60;;;11.30;;
61358;SDS011;47228;46.762;23.598;2022-11-12T06:02:38;20.50;;;13.20;;
61358;SDS011;47228;46.762;23.598;2022-11-12T06:05:06;21.70;;;13.30;;
61358;SDS011;47228;46.762;23.598;2022-11-12T06:07:34;17.80;;;12.70;;
61358;SDS011;47228;46.762;23.598;2022-11-12T06:10:02;22.30;;;14.20;;
61358;SDS011;47228;46.762;23.598;2022-11-12T06:12:30;23.80;;;13.80;;
61358;SDS011;47228;46.762;23.598;2022-11-12T06:14:58;22.20;;;12.90;;
61358;SDS011;47228;46.762;23.598;2022-11-12T06:17:26;20.60;;;12.70;;
61358;SDS011;47228;46.762;23.598;2022-11-12T06:19:54;18.40;;;11.90;;
61358;SDS011;47228;46.762;23.598;2022-11-12T06:22:22;19.70;;;13.20;;
61358;SDS011;47228;46.762;23.598;2022-11-12T06:24:49;17.90;;;11.90;;
61358;SDS011;47228;46.762;23.598;2022-11-12T06:27:17;18.70;;;11.30;;
61358;SDS011;47228;46.762;23.598;2022-11-12T06:29:45;22.10;;;10.80;;
61358;SDS011;47228;46.762;23.598;2022-11-12T06:32:13;15.30;;;10.20;;
61358;SDS011;47228;46.762;23.598;2022-11-12T06:34:41;17.50;;;11.30;;
61358;SDS011;47228;46.762;23.598;2022-11-12T06:37:09;19.10;;;11.00;;
61358;SDS011;47228;46.762;23.598;2022-11-12T06:39:36;18.10;;;10.90;;
61358;SDS011;47228;46.762;23.598;2022-11-12T06:42:04;20.50;;;11.00;;
61358;SDS011;47228;46.762;23.598;2022-11-12T06:44:32;17.90;;;11.10;;
61358;SDS011;47228;46.762;23.598;2022-11-12T06:47:00;16.60;;;10.80;;
61358;SDS011;47228;46.762;23.598;2022-11-12T06:49:28;17.20;;;10.80;;
61358;SDS011;47228;46.762;23.598;2022-11-12T06:51:56;17.00;;;11.20;;
61358;SDS011;47228;46.762;23.598;2022-11-12T06:54:24;15.10;;;9.80;;
61358;SDS011;47228;46.762;23.598;2022-11-12T06:56:53;19.20;;;11.20;;
61358;SDS011;47228;46.762;23.598;2022-11-12T06:59:20;18.60;;;12.20;;
61358;SDS011;47228;46.762;23.598;2022-11-12T07:01:48;18.90;;;11.60;;
61358;SDS011;47228;46.762;23.598;2022-11-12T07:04:16;18.60;;;11.30;;
61358;SDS011;47228;46.762;23.598;2022-11-12T07:06:44;17.60;;;10.90;;
61358;SDS011;47228;46.762;23.598;2022-11-12T07:09:12;19.70;;;11.70;;
61358;SDS011;47228;46.762;23.598;2022-11-12T07:11:40;20.40;;;12.30;;
61358;SDS011;47228;46.762;23.598;2022-11-12T07:14:09;17.30;;;11.20;;
61358;SDS011;47228;46.762;23.598;2022-11-12T07:16:37;18.30;;;12.50;;
61358;SDS011;47228;46.762;23.598;2022-11-12T07:19:05;21.20;;;14.70;;
61358;SDS011;47228;46.762;23.598;2022-11-12T07:21:33;20.90;;;14.50;;
61358;SDS011;47228;46.762;23.598;2022-11-12T07:24:00;20.60;;;14.80;;
61358;SDS011;47228;46.762;23.598;2022-11-12T07:26:28;27.10;;;15.10;;
61358;SDS011;47228;46.762;23.598;2022-11-12T07:28:56;20.30;;;13.90;;
61358;SDS011;47228;46.762;23.598;2022-11-12T07:31:24;21.10;;;14.30;;
61358;SDS011;47228;46.762;23.598;2022-11-12T07:33:52;24.60;;;14.60;;
61358;SDS011;47228;46.762;23.598;2022-11-12T07:36:20;22.50;;;14.40;;
61358;SDS011;47228;46.762;23.598;2022-11-12T07:38:52;23.10;;;15.40;;
61358;SDS011;47228;46.762;23.598;2022-11-12T07:41:21;20.80;;;14.30;;
61358;SDS011;47228;46.762;23.598;2022-11-12T07:43:51;21.90;;;14.80;;
61358;SDS011;47228;46.762;23.598;2022-11-12T07:46:21;26.00;;;14.40;;
61358;SDS011;47228;46.762;23.598;2022-11-12T07:48:50;23.00;;;16.00;;
61358;SDS011;47228;46.762;23.598;2022-11-12T07:51:20;23.10;;;17.20;;
61358;SDS011;47228;46.762;23.598;2022-11-12T07:53:51;34.10;;;21.80;;
61358;SDS011;47228;46.762;23.598;2022-11-12T07:56:26;31.40;;;22.90;;
61358;SDS011;47228;46.762;23.598;2022-11-12T07:58:55;32.50;;;19.30;;
61358;SDS011;47228;46.762;23.598;2022-11-12T08:01:24;35.50;;;20.40;;
61358;SDS011;47228;46.762;23.598;2022-11-12T08:03:55;28.00;;;18.50;;
61358;SDS011;47228;46.762;23.598;2022-11-12T08:06:24;34.20;;;20.30;;
61358;SDS011;47228;46.762;23.598;2022-11-12T08:08:53;32.60;;;20.70;;
61358;SDS011;47228;46.762;23.598;2022-11-12T08:11:23;39.80;;;21.90;;
61358;SDS011;47228;46.762;23.598;2022-11-12T08:13:51;35.20;;;21.80;;
61358;SDS011;47228;46.762;23.598;2022-11-12T08:16:19;33.30;;;20.70;;
61358;SDS011;47228;46.762;23.598;2022-11-12T08:18:47;35.90;;;22.10;;
61358;SDS011;47228;46.762;23.598;2022-11-12T08:21:16;34.70;;;22.30;;
61358;SDS011;47228;46.762;23.598;2022-11-12T08:23:45;31.10;;;20.80;;
61358;SDS011;47228;46.762;23.598;2022-11-12T08:26:14;41.30;;;22.90;;
61358;SDS011;47228;46.762;23.598;2022-11-12T08:28:43;42.50;;;21.20;;
61358;SDS011;47228;46.762;23.598;2022-11-12T08:31:12;30.90;;;20.90;;
61358;SDS011;47228;46.762;23.598;2022-11-12T08:33:43;34.50;;;21.20;;
61358;SDS011;47228;46.762;23.598;2022-11-12T08:36:11;28.80;;;20.70;;
61358;SDS011;47228;46.762;23.598;2022-11-12T08:38:41;31.90;;;20.10;;
61358;SDS011;47228;46.762;23.598;2022-11-12T08:41:10;32.60;;;22.70;;
61358;SDS011;47228;46.762;23.598;2022-11-12T08:43:40;30.60;;;20.30;;
61358;SDS011;47228;46.762;23.598;2022-11-12T08:46:08;27.80;;;18.40;;
61358;SDS011;47228;46.762;23.598;2022-11-12T08:48:36;28.30;;;19.70;;
61358;SDS011;47228;46.762;23.598;2022-11-12T08:51:06;30.50;;;20.50;;
61358;SDS011;47228;46.762;23.598;2022-11-12T08:53:34;28.10;;;19.50;;
61358;SDS011;47228;46.762;23.598;2022-11-12T08:56:02;31.10;;;20.70;;
61358;SDS011;47228;46.762;23.598;2022-11-12T08:58:30;35.10;;;22.20;;
61358;SDS011;47228;46.762;23.598;2022-11-12T09:01:02;36.50;;;22.70;;
61358;SDS011;47228;46.762;23.598;2022-11-12T09:03:32;35.40;;;22.20;;
61358;SDS011;47228;46.762;23.598;2022-11-12T09:06:03;31.20;;;22.20;;
61358;SDS011;47228;46.762;23.598;2022-11-12T09:08:32;33.50;;;22.30;;
61358;SDS011;47228;46.762;23.598;2022-11-12T09:11:02;35.50;;;23.80;;
61358;SDS011;47228;46.762;23.598;2022-11-12T09:13:30;34.80;;;25.20;;
61358;SDS011;47228;46.762;23.598;2022-11-12T09:15:59;35.20;;;25.70;;
61358;SDS011;47228;46.762;23.598;2022-11-12T09:18:29;33.30;;;22.40;;
61358;SDS011;47228;46.762;23.598;2022-11-12T09:20:58;32.40;;;21.30;;
61358;SDS011;47228;46.762;23.598;2022-11-12T09:23:27;29.90;;;20.80;;
61358;SDS011;47228;46.762;23.598;2022-11-12T09:25:55;28.80;;;20.20;;
61358;SDS011;47228;46.762;23.598;2022-11-12T09:28:24;30.60;;;21.10;;
61358;SDS011;47228;46.762;23.598;2022-11-12T09:30:53;27.20;;;19.10;;
61358;SDS011;47228;46.762;23.598;2022-11-12T09:33:23;27.10;;;19.70;;
61358;SDS011;47228;46.762;23.598;2022-11-12T09:35:52;30.40;;;20.70;;
61358;SDS011;47228;46.762;23.598;2022-11-12T09:38:21;29.50;;;19.80;;
61358;SDS011;47228;46.762;23.598;2022-11-12T09:46:16;26.50;;;18.80;;
61358;SDS011;47228;46.762;23.598;2022-11-12T09:49:17;31.20;;;22.90;;
61358;SDS011;47228;46.762;23.598;2022-11-12T09:51:55;38.30;;;26.80;;
61358;SDS011;47228;46.762;23.598;2022-11-12T09:54:29;32.90;;;23.30;;
61358;SDS011;47228;46.762;23.598;2022-11-12T09:56:59;29.90;;;22.40;;
61358;SDS011;47228;46.762;23.598;2022-11-12T09:59:31;31.70;;;22.20;;
61358;SDS011;47228;46.762;23.598;2022-11-12T10:07:05;30.90;;;21.30;;
61358;SDS011;47228;46.762;23.598;2022-11-12T10:09:48;29.60;;;21.30;;
61358;SDS011;47228;46.762;23.598;2022-11-12T10:12:40;30.10;;;20.80;;
61358;SDS011;47228;46.762;23.598;2022-11-12T10:24:02;29.20;;;20.80;;
61358;SDS011;47228;46.762;23.598;2022-11-12T10:26:36;31.30;;;21.00;;
61358;SDS011;47228;46.762;23.598;2022-11-12T10:31:51;28.50;;;21.40;;
61358;SDS011;47228;46.762;23.598;2022-11-12T10:34:20;31.90;;;22.00;;
61358;SDS011;47228;46.762;23.598;2022-11-12T10:39:30;26.10;;;17.00;;
61358;SDS011;47228;46.762;23.598;2022-11-12T10:42:11;31.90;;;19.70;;
61358;SDS011;47228;46.762;23.598;2022-11-12T10:44:43;29.40;;;21.10;;
61358;SDS011;47228;46.762;23.598;2022-11-12T10:52:35;31.90;;;22.30;;
61358;SDS011;47228;46.762;23.598;2022-11-12T10:55:20;27.10;;;20.20;;
61358;SDS011;47228;46.762;23.598;2022-11-12T10:58:24;27.00;;;19.90;;
61358;SDS011;47228;46.762;23.598;2022-11-12T11:00:51;27.50;;;19.20;;
61358;SDS011;47228;46.762;23.598;2022-11-12T11:03:26;26.90;;;19.90;;
61358;SDS011;47228;46.762;23.598;2022-11-12T11:06:02;26.50;;;19.00;;
61358;SDS011;47228;46.762;23.598;2022-11-12T11:08:45;28.00;;;19.90;;
61358;SDS011;47228;46.762;23.598;2022-11-12T11:11:19;29.30;;;20.70;;
61358;SDS011;47228;46.762;23.598;2022-11-12T11:13:51;30.00;;;19.80;;
61358;SDS011;47228;46.762;23.598;2022-11-12T11:18:55;30.80;;;22.20;;
61358;SDS011;47228;46.762;23.598;2022-11-12T11:35:27;27.40;;;20.80;;
61358;SDS011;47228;46.762;23.598;2022-11-12T11:40:42;25.10;;;18.60;;
61358;SDS011;47228;46.762;23.598;2022-11-12T11:57:14;29.00;;;21.10;;
61358;SDS011;47228;46.762;23.598;2022-11-12T12:11:20;31.30;;;21.30;;
61358;SDS011;47228;46.762;23.598;2022-11-12T12:22:09;38.70;;;28.00;;
61358;SDS011;47228;46.762;23.598;2022-11-12T12:27:33;35.80;;;22.20;;
61358;SDS011;47228;46.762;23.598;2022-11-12T12:30:20;31.90;;;22.10;;
61358;SDS011;47228;46.762;23.598;2022-11-12T12:32:58;31.40;;;22.20;;
61358;SDS011;47228;46.762;23.598;2022-11-12T12:35:39;34.90;;;23.80;;
61358;SDS011;47228;46.762;23.598;2022-11-12T12:38:33;33.60;;;21.70;;
61358;SDS011;47228;46.762;23.598;2022-11-12T12:41:08;33.00;;;22.30;;
61358;SDS011;47228;46.762;23.598;2022-11-12T12:46:16;35.90;;;24.50;;
61358;SDS011;47228;46.762;23.598;2022-11-12T12:48:49;37.30;;;26.50;;
61358;SDS011;47228;46.762;23.598;2022-11-12T12:51:20;36.90;;;25.10;;
61358;SDS011;47228;46.762;23.598;2022-11-12T12:53:49;34.80;;;24.10;;
61358;SDS011;47228;46.762;23.598;2022-11-12T12:58:57;37.00;;;24.90;;
61358;SDS011;47228;46.762;23.598;2022-11-12T13:01:31;32.80;;;23.10;;
61358;SDS011;47228;46.762;23.598;2022-11-12T13:04:02;29.30;;;20.70;;
61358;SDS011;47228;46.762;23.598;2022-11-12T13:06:40;30.10;;;20.60;;
61358;SDS011;47228;46.762;23.598;2022-11-12T13:09:23;30.20;;;21.90;;
61358;SDS011;47228;46.762;23.598;2022-11-12T13:11:53;34.20;;;23.30;;
61358;SDS011;47228;46.762;23.598;2022-11-12T13:17:02;33.50;;;23.10;;
61358;SDS011;47228;46.762;23.598;2022-11-12T13:25:00;29.60;;;21.20;;
61358;SDS011;47228;46.762;23.598;2022-11-12T13:32:56;32.50;;;22.50;;
61358;SDS011;47228;46.762;23.598;2022-11-12T13:35:32;30.80;;;20.50;;
61358;SDS011;47228;46.762;23.598;2022-11-12T13:43:12;28.50;;;20.50;;
61358;SDS011;47228;46.762;23.598;2022-11-12T13:45:46;22.00;;;15.60;;
61358;SDS011;47228;46.762;23.598;2022-11-12T13:48:21;29.00;;;19.30;;
61358;SDS011;47228;46.762;23.598;2022-11-12T13:51:14;29.80;;;20.20;;
61358;SDS011;47228;46.762;23.598;2022-11-12T13:53:43;29.70;;;20.40;;
61358;SDS011;47228;46.762;23.598;2022-11-12T13:56:25;31.40;;;20.40;;
61358;SDS011;47228;46.762;23.598;2022-11-12T13:59:07;27.90;;;18.20;;
61358;SDS011;47228;46.762;23.598;2022-11-12T14:01:41;28.40;;;19.20;;
61358;SDS011;47228;46.762;23.598;2022-11-12T14:04:10;27.70;;;19.40;;
61358;SDS011;47228;46.762;23.598;2022-11-12T14:07:05;26.60;;;18.60;;
61358;SDS011;47228;46.762;23.598;2022-11-12T14:21:19;31.00;;;19.90;;
61358;SDS011;47228;46.762;23.598;2022-11-12T14:23:48;31.40;;;19.60;;
61358;SDS011;47228;46.762;23.598;2022-11-12T14:26:36;31.20;;;20.10;;
61358;SDS011;47228;46.762;23.598;2022-11-12T14:29:06;32.90;;;20.30;;
61358;SDS011;47228;46.762;23.598;2022-11-12T14:31:43;35.10;;;21.50;;
61358;SDS011;47228;46.762;23.598;2022-11-12T14:34:17;32.10;;;21.10;;
61358;SDS011;47228;46.762;23.598;2022-11-12T14:36:46;33.80;;;20.90;;
61358;SDS011;47228;46.762;23.598;2022-11-12T14:39:15;30.40;;;20.80;;
61358;SDS011;47228;46.762;23.598;2022-11-12T14:41:43;33.50;;;20.50;;
61358;SDS011;47228;46.762;23.598;2022-11-12T14:44:19;33.50;;;20.90;;
61358;SDS011;47228;46.762;23.598;2022-11-12T14:46:54;29.50;;;19.10;;
61358;SDS011;47228;46.762;23.598;2022-11-12T14:52:27;32.30;;;21.70;;
61358;SDS011;47228;46.762;23.598;2022-11-12T14:54:59;29.90;;;19.80;;
61358;SDS011;47228;46.762;23.598;2022-11-12T14:57:36;37.30;;;21.90;;
61358;SDS011;47228;46.762;23.598;2022-11-12T15:03:16;31.20;;;20.80;;
61358;SDS011;47228;46.762;23.598;2022-11-12T15:08:31;29.50;;;19.70;;
61358;SDS011;47228;46.762;23.598;2022-11-12T15:13:49;31.10;;;21.90;;
61358;SDS011;47228;46.762;23.598;2022-11-12T15:16:21;35.50;;;23.60;;
61358;SDS011;47228;46.762;23.598;2022-11-12T15:21:56;33.00;;;23.00;;
61358;SDS011;47228;46.762;23.598;2022-11-12T15:24:32;34.20;;;22.90;;
61358;SDS011;47228;46.762;23.598;2022-11-12T15:27:25;30.10;;;21.00;;
61358;SDS011;47228;46.762;23.598;2022-11-12T15:30:20;36.10;;;22.00;;
61358;SDS011;47228;46.762;23.598;2022-11-12T15:33:15;40.50;;;25.60;;
61358;SDS011;47228;46.762;23.598;2022-11-12T15:35:54;38.60;;;24.30;;
61358;SDS011;47228;46.762;23.598;2022-11-12T15:38:35;37.30;;;24.20;;
61358;SDS011;47228;46.762;23.598;2022-11-12T15:41:04;38.90;;;24.10;;
61358;SDS011;47228;46.762;23.598;2022-11-12T15:43:45;37.40;;;24.20;;
61358;SDS011;47228;46.762;23.598;2022-11-12T15:46:13;36.60;;;23.90;;
61358;SDS011;47228;46.762;23.598;2022-11-12T15:48:44;38.40;;;24.70;;
61358;SDS011;47228;46.762;23.598;2022-11-12T15:51:12;39.60;;;24.40;;
61358;SDS011;47228;46.762;23.598;2022-11-12T15:53:42;35.70;;;24.60;;
61358;SDS011;47228;46.762;23.598;2022-11-12T15:56:10;41.20;;;24.90;;
61358;SDS011;47228;46.762;23.598;2022-11-12T15:58:42;36.30;;;24.70;;
61358;SDS011;47228;46.762;23.598;2022-11-12T16:01:10;37.00;;;25.60;;
61358;SDS011;47228;46.762;23.598;2022-11-12T16:03:39;42.00;;;25.40;;
61358;SDS011;47228;46.762;23.598;2022-11-12T16:06:08;42.80;;;27.10;;
61358;SDS011;47228;46.762;23.598;2022-11-12T16:08:38;46.90;;;29.40;;
61358;SDS011;47228;46.762;23.598;2022-11-12T16:11:07;40.20;;;25.10;;
61358;SDS011;47228;46.762;23.598;2022-11-12T16:13:56;42.90;;;28.10;;
61358;SDS011;47228;46.762;23.598;2022-11-12T16:16:24;42.50;;;28.30;;
61358;SDS011;47228;46.762;23.598;2022-11-12T16:18:52;48.30;;;30.20;;
61358;SDS011;47228;46.762;23.598;2022-11-12T16:21:20;49.90;;;31.40;;
61358;SDS011;47228;46.762;23.598;2022-11-12T16:23:48;46.40;;;30.30;;
61358;SDS011;47228;46.762;23.598;2022-11-12T16:26:22;50.40;;;31.10;;
61358;SDS011;47228;46.762;23.598;2022-11-12T16:28:54;50.70;;;30.80;;
61358;SDS011;47228;46.762;23.598;2022-11-12T16:31:23;48.70;;;30.10;;
61358;SDS011;47228;46.762;23.598;2022-11-12T16:33:51;51.50;;;31.20;;
61358;SDS011;47228;46.762;23.598;2022-11-12T16:36:20;49.60;;;32.10;;
61358;SDS011;47228;46.762;23.598;2022-11-12T16:38:47;54.10;;;31.60;;
61358;SDS011;47228;46.762;23.598;2022-11-12T16:41:15;50.10;;;31.60;;
61358;SDS011;47228;46.762;23.598;2022-11-12T16:43:43;50.80;;;32.10;;
61358;SDS011;47228;46.762;23.598;2022-11-12T16:46:12;55.20;;;31.10;;
61358;SDS011;47228;46.762;23.598;2022-11-12T16:48:50;53.90;;;31.10;;
61358;SDS011;47228;46.762;23.598;2022-11-12T16:51:19;49.10;;;31.30;;
61358;SDS011;47228;46.762;23.598;2022-11-12T16:53:48;53.50;;;32.50;;
61358;SDS011;47228;46.762;23.598;2022-11-12T16:56:17;55.40;;;32.10;;
61358;SDS011;47228;46.762;23.598;2022-11-12T16:58:46;56.40;;;35.20;;
61358;SDS011;47228;46.762;23.598;2022-11-12T17:01:28;59.10;;;35.90;;
61358;SDS011;47228;46.762;23.598;2022-11-12T17:03:58;57.40;;;34.50;;